Terminal Aerodrome Forecast
Issued by NWS

Home | Current Version | Previous Version | Graphics & Text | Print | Product List | Glossary On
Versions: 1 2 3 4 5 6 7 8 9 10 11 12 13 14 15 16 17 18 19 20 21 22 23 24 25 26 27
000
FTUS43 KDVN 170520
TAFCID
TAF
KCID 170520Z 1706/1806 14012KT P6SM BKN250
      TEMPO 1706/1709 BKN050
     FM170900 15014G21KT P6SM OVC040
     FM171400 15015G23KT 6SM BR VCSH OVC020 PROB30 1715/1719 2SM
      -RADZ OVC012
     FM172000 17010KT 2SM -RADZ OVC007
     FM180200 18006KT 1SM BR OVC003=

USA.gov is the U.S. government's official web portal to all federal, state and local government web resources and services.